createdAt,value
2018-08-04T00:01:04.361Z,11.13
2018-08-04T00:03:31.935Z,10.70
2018-08-04T00:05:59.537Z,10.17
2018-08-04T00:08:27.117Z,11.60
2018-08-04T00:10:54.723Z,11.80
2018-08-04T00:13:22.351Z,11.60
2018-08-04T00:15:49.996Z,11.60
2018-08-04T00:18:17.593Z,12.70
2018-08-04T00:20:45.262Z,12.43
2018-08-04T00:23:12.901Z,14.07
2018-08-04T00:25:40.526Z,14.13
2018-08-04T00:28:08.125Z,13.30
2018-08-04T00:30:35.691Z,14.97
2018-08-04T00:33:03.277Z,13.87
2018-08-04T00:35:30.899Z,16.20
2018-08-04T00:37:58.510Z,16.00
2018-08-04T00:40:26.134Z,15.93
2018-08-04T00:42:53.742Z,15.97
2018-08-04T00:45:21.376Z,16.23
2018-08-04T00:47:48.976Z,16.90
2018-08-04T00:50:16.604Z,16.37
2018-08-04T00:52:44.203Z,15.67
2018-08-04T00:55:11.861Z,15.33
2018-08-04T00:57:39.550Z,15.60
2018-08-04T01:00:07.180Z,14.70
2018-08-04T01:02:34.755Z,16.17
2018-08-04T01:05:02.369Z,16.53
2018-08-04T01:07:29.931Z,14.37
2018-08-04T01:10:02.438Z,15.37
2018-08-04T01:12:30.257Z,13.50
2018-08-04T01:14:58.175Z,14.40
2018-08-04T01:17:25.772Z,13.20
2018-08-04T01:19:53.370Z,12.63
2018-08-04T01:22:20.946Z,14.00
2018-08-04T01:24:48.498Z,13.80
2018-08-04T01:27:16.041Z,13.23
2018-08-04T01:29:43.656Z,13.87
2018-08-04T01:32:11.286Z,12.43
2018-08-04T01:34:38.847Z,13.10
2018-08-04T01:37:06.451Z,11.63
2018-08-04T01:39:33.993Z,13.67
2018-08-04T01:42:01.553Z,12.83
2018-08-04T01:44:29.145Z,12.67
2018-08-04T01:46:57.447Z,13.43
2018-08-04T01:49:25.014Z,14.60
2018-08-04T01:51:52.593Z,13.60
2018-08-04T01:54:20.203Z,12.90
2018-08-04T01:56:47.842Z,13.77
2018-08-04T01:59:15.429Z,14.23
2018-08-04T02:01:43.020Z,12.63
2018-08-04T02:04:10.590Z,14.70
2018-08-04T02:06:38.176Z,14.07
2018-08-04T02:09:07.731Z,14.97
2018-08-04T02:11:35.312Z,13.20
2018-08-04T02:14:02.932Z,16.03
2018-08-04T02:16:30.515Z,14.50
2018-08-04T02:18:58.085Z,13.43
2018-08-04T02:21:25.622Z,15.47
2018-08-04T02:23:53.160Z,15.60
2018-08-04T02:26:20.749Z,15.70
2018-08-04T02:28:48.326Z,13.93
2018-08-04T02:31:15.955Z,15.93
2018-08-04T02:33:43.571Z,15.50
2018-08-04T02:36:11.155Z,15.43
2018-08-04T02:38:38.731Z,14.33
2018-08-04T02:41:06.429Z,13.23
2018-08-04T02:43:34.068Z,14.33
2018-08-04T02:46:01.589Z,14.90
2018-08-04T02:48:29.168Z,16.10
2018-08-04T02:50:56.795Z,16.00
2018-08-04T02:53:24.395Z,16.33
2018-08-04T02:55:52.009Z,17.27
2018-08-04T02:58:19.561Z,20.30
2018-08-04T03:00:47.165Z,19.53
2018-08-04T03:03:14.770Z,20.50
2018-08-04T03:05:42.448Z,23.80
2018-08-04T03:08:10.049Z,24.33
2018-08-04T03:10:37.678Z,20.67
2018-08-04T03:13:05.355Z,21.97
2018-08-04T03:15:32.953Z,20.37
2018-08-04T03:18:00.561Z,20.30
2018-08-04T03:20:28.126Z,20.70
2018-08-04T03:22:55.807Z,18.93
2018-08-04T03:25:23.387Z,19.47
2018-08-04T03:27:50.951Z,18.73
2018-08-04T03:30:18.624Z,18.47
2018-08-04T03:32:46.251Z,17.33
2018-08-04T03:35:13.900Z,18.20
2018-08-04T03:37:41.494Z,18.27
2018-08-04T03:40:09.108Z,17.60
2018-08-04T03:42:36.746Z,16.83
2018-08-04T03:45:04.531Z,15.13
2018-08-04T03:47:32.155Z,16.60
2018-08-04T03:49:59.700Z,15.63
2018-08-04T03:52:27.311Z,16.70
2018-08-04T03:54:54.933Z,17.30
2018-08-04T03:57:22.581Z,17.30
2018-08-04T03:59:50.251Z,16.93
2018-08-04T04:02:17.971Z,17.57
2018-08-04T04:04:45.533Z,16.77
2018-08-04T04:07:13.094Z,17.43
2018-08-04T04:09:40.741Z,16.63
2018-08-04T04:12:08.374Z,17.33
2018-08-04T04:14:35.957Z,17.07
2018-08-04T04:17:03.522Z,15.83
2018-08-04T04:19:31.099Z,15.10
2018-08-04T04:21:58.734Z,14.90
2018-08-04T04:24:26.366Z,16.37
2018-08-04T04:26:53.941Z,16.00
2018-08-04T04:29:21.604Z,18.50
2018-08-04T04:31:50.213Z,16.53
2018-08-04T04:34:17.842Z,15.97
2018-08-04T04:36:45.476Z,16.67
2018-08-04T04:39:13.068Z,14.83
2018-08-04T04:41:40.878Z,15.03
2018-08-04T04:44:08.742Z,15.00
2018-08-04T04:46:37.947Z,16.03
2018-08-04T04:49:08.188Z,14.27
2018-08-04T04:51:35.784Z,15.60
2018-08-04T04:54:03.619Z,17.57
2018-08-04T04:56:31.264Z,14.37
2018-08-04T04:58:58.834Z,15.07
2018-08-04T05:01:26.594Z,14.87
2018-08-04T05:03:54.394Z,15.00
2018-08-04T05:06:22.253Z,15.13
2018-08-04T05:08:50.204Z,15.30
2018-08-04T05:11:22.592Z,14.60
2018-08-04T05:13:50.248Z,14.13
2018-08-04T05:16:17.892Z,15.40
2018-08-04T05:18:45.478Z,14.17
2018-08-04T05:21:13.108Z,15.30
2018-08-04T05:23:40.728Z,14.03
2018-08-04T05:26:08.313Z,13.27
2018-08-04T05:28:35.968Z,13.93
2018-08-04T05:31:03.638Z,13.67
2018-08-04T05:33:31.208Z,16.73
2018-08-04T05:35:58.830Z,16.87
2018-08-04T05:38:26.509Z,15.73
2018-08-04T05:40:54.050Z,16.20
2018-08-04T05:43:21.591Z,17.70
2018-08-04T05:45:49.193Z,19.57
2018-08-04T05:48:16.859Z,20.30
2018-08-04T05:50:44.437Z,20.40
2018-08-04T05:53:11.997Z,23.17
2018-08-04T05:55:39.653Z,23.93
2018-08-04T05:58:07.765Z,24.27
2018-08-04T06:00:35.547Z,21.70
2018-08-04T06:03:03.626Z,22.00
2018-08-04T06:05:31.466Z,21.40
2018-08-04T06:07:59.352Z,20.30
2018-08-04T06:10:26.996Z,17.83
2018-08-04T06:12:54.642Z,17.83
2018-08-04T06:15:22.746Z,19.40
2018-08-04T06:17:50.338Z,18.13
2018-08-04T06:20:17.918Z,18.00
2018-08-04T06:22:45.500Z,17.77
2018-08-04T06:25:13.079Z,16.60
2018-08-04T06:27:40.628Z,15.73
2018-08-04T06:30:09.836Z,14.87
2018-08-04T06:32:37.418Z,14.90
2018-08-04T06:35:05.143Z,12.97
2018-08-04T06:37:32.713Z,14.23
2018-08-04T06:40:00.305Z,12.57
2018-08-04T06:42:27.875Z,15.00
2018-08-04T06:44:55.451Z,14.50
2018-08-04T06:47:23.175Z,14.57
2018-08-04T06:49:50.860Z,14.27
2018-08-04T06:52:18.557Z,14.40
2018-08-04T06:54:46.196Z,13.30
2018-08-04T06:57:13.805Z,13.47
2018-08-04T06:59:41.345Z,14.67
2018-08-04T07:02:08.967Z,14.10
2018-08-04T07:04:36.569Z,15.30
2018-08-04T07:07:04.756Z,13.53
2018-08-04T07:09:32.382Z,13.90
2018-08-04T07:12:00.064Z,13.50
2018-08-04T07:14:27.632Z,14.13
2018-08-04T07:16:55.332Z,12.97
2018-08-04T07:19:23.039Z,13.97
2018-08-04T07:21:50.748Z,12.40
2018-08-04T07:24:18.362Z,12.87
2018-08-04T07:26:46.057Z,13.57
2018-08-04T07:29:13.643Z,12.57
2018-08-04T07:31:41.346Z,13.53
2018-08-04T07:34:08.969Z,12.57
2018-08-04T07:36:36.537Z,14.07
2018-08-04T07:39:06.751Z,15.00
2018-08-04T07:41:34.441Z,11.73
2018-08-04T07:44:02.620Z,14.90
2018-08-04T07:46:30.345Z,14.13
2018-08-04T07:48:58.008Z,13.37
2018-08-04T07:51:25.578Z,14.30
2018-08-04T07:53:53.142Z,13.20
2018-08-04T07:56:20.994Z,12.40
2018-08-04T07:58:48.620Z,14.00
2018-08-04T08:01:16.182Z,13.70
2018-08-04T08:03:43.932Z,13.67
2018-08-04T08:06:11.540Z,14.27
2018-08-04T08:08:39.137Z,13.53
2018-08-04T08:11:06.858Z,13.93
2018-08-04T08:13:34.423Z,12.17
2018-08-04T08:16:02.018Z,13.17
2018-08-04T08:18:29.591Z,12.03
2018-08-04T08:20:57.201Z,14.23
2018-08-04T08:23:24.822Z,13.33
2018-08-04T08:26:05.462Z,12.83
2018-08-04T08:28:33.101Z,14.30
2018-08-04T08:31:00.662Z,12.50
2018-08-04T08:33:28.202Z,13.20
2018-08-04T08:35:55.754Z,13.63
2018-08-04T08:38:23.328Z,13.43
2018-08-04T08:40:50.906Z,12.57
2018-08-04T08:43:18.431Z,13.07
2018-08-04T08:45:46.000Z,11.47
2018-08-04T08:48:13.583Z,11.37
2018-08-04T08:50:41.126Z,10.47
2018-08-04T08:53:08.683Z,10.77
2018-08-04T08:55:36.250Z,11.97
2018-08-04T08:58:04.011Z,11.50
2018-08-04T09:00:31.594Z,11.60
2018-08-04T09:02:59.169Z,11.20
2018-08-04T09:05:26.724Z,10.70
2018-08-04T09:07:54.318Z,11.07
2018-08-04T09:10:21.879Z,10.87
2018-08-04T09:12:49.512Z,11.00
2018-08-04T09:15:17.039Z,10.90
2018-08-04T09:17:44.704Z,9.40
2018-08-04T09:20:12.330Z,11.10
2018-08-04T09:22:39.883Z,11.50
2018-08-04T09:25:08.105Z,10.57
2018-08-04T09:27:36.387Z,11.03
2018-08-04T09:30:06.931Z,10.70
2018-08-04T09:32:34.508Z,11.20
2018-08-04T09:35:02.199Z,11.93
2018-08-04T09:37:29.759Z,9.63
2018-08-04T09:39:57.370Z,10.93
2018-08-04T09:42:24.976Z,11.00
2018-08-04T09:44:52.483Z,10.77
2018-08-04T09:47:20.094Z,12.13
2018-08-04T09:49:47.730Z,11.20
2018-08-04T09:52:15.318Z,12.30
2018-08-04T09:54:42.906Z,11.67
2018-08-04T09:57:10.708Z,11.23
2018-08-04T09:59:38.525Z,9.30
2018-08-04T10:02:12.121Z,11.50
2018-08-04T10:04:40.090Z,9.67
2018-08-04T10:07:08.266Z,10.67
2018-08-04T10:09:35.840Z,10.63
2018-08-04T10:12:03.508Z,10.50
2018-08-04T10:14:31.682Z,11.20
2018-08-04T10:16:59.589Z,11.00
2018-08-04T10:19:27.426Z,10.80
2018-08-04T10:21:55.085Z,11.17
2018-08-04T10:24:22.727Z,10.80
2018-08-04T10:26:50.362Z,11.23
2018-08-04T10:29:18.107Z,11.47
2018-08-04T10:31:45.695Z,10.10
2018-08-04T10:34:13.318Z,10.70
2018-08-04T10:36:40.885Z,10.33
2018-08-04T10:39:09.353Z,12.23
2018-08-04T10:41:37.047Z,10.30
2018-08-04T10:44:05.158Z,10.50
2018-08-04T10:46:32.773Z,11.33
2018-08-04T10:49:00.590Z,10.83
2018-08-04T10:51:28.228Z,10.80
2018-08-04T10:53:55.854Z,10.60
2018-08-04T10:56:23.421Z,11.07
2018-08-04T10:58:51.381Z,10.07
2018-08-04T11:01:19.036Z,10.23
2018-08-04T11:03:46.711Z,10.00
2018-08-04T11:06:14.330Z,9.47
2018-08-04T11:08:41.932Z,9.23
2018-08-04T11:11:09.555Z,9.77
2018-08-04T11:13:37.282Z,9.17
2018-08-04T11:16:05.098Z,9.90
2018-08-04T11:18:32.955Z,9.83
2018-08-04T11:21:01.336Z,10.47
2018-08-04T11:23:29.225Z,9.87
2018-08-04T11:25:57.072Z,9.70
2018-08-04T11:28:24.695Z,10.10
2018-08-04T11:30:52.309Z,9.83
2018-08-04T11:33:20.484Z,9.30
2018-08-04T11:35:48.114Z,9.67
2018-08-04T11:38:15.984Z,10.30
2018-08-04T11:40:43.572Z,9.43
2018-08-04T11:43:11.204Z,9.90
2018-08-04T11:45:38.959Z,10.23
2018-08-04T11:48:06.480Z,10.67
2018-08-04T11:50:34.088Z,10.60
2018-08-04T11:53:01.640Z,9.27
2018-08-04T11:55:29.294Z,9.90
2018-08-04T11:57:56.840Z,11.20
2018-08-04T12:00:24.508Z,11.70
2018-08-04T12:02:52.133Z,10.10
2018-08-04T12:05:19.741Z,11.43
2018-08-04T12:07:47.346Z,10.87
2018-08-04T12:10:14.997Z,10.57
2018-08-04T12:12:42.670Z,11.20
2018-08-04T12:15:10.235Z,10.77
2018-08-04T12:17:37.846Z,10.00
2018-08-04T12:20:05.450Z,9.90
2018-08-04T12:22:33.064Z,9.50
2018-08-04T12:25:00.895Z,9.00
2018-08-04T12:27:28.441Z,8.37
2018-08-04T12:29:56.045Z,8.40
2018-08-04T12:32:23.629Z,9.33
2018-08-04T12:34:51.179Z,9.53
2018-08-04T12:37:18.765Z,8.43
2018-08-04T12:39:46.313Z,10.00
2018-08-04T12:42:13.932Z,8.93
2018-08-04T12:44:41.479Z,10.17
2018-08-04T12:47:09.127Z,9.60
2018-08-04T12:49:36.691Z,8.97
2018-08-04T12:52:04.312Z,8.63
2018-08-04T12:54:31.933Z,8.00
2018-08-04T12:56:59.510Z,7.60
2018-08-04T12:59:27.134Z,8.30
2018-08-04T13:01:54.832Z,8.40
2018-08-04T13:04:22.388Z,7.17
2018-08-04T13:06:49.902Z,7.57
2018-08-04T13:09:17.530Z,8.77
2018-08-04T13:11:45.167Z,8.20
2018-08-04T13:14:12.747Z,7.80
2018-08-04T13:16:40.434Z,7.93
2018-08-04T13:19:08.002Z,7.53
2018-08-04T13:21:35.664Z,7.77
2018-08-04T13:24:03.395Z,6.60
2018-08-04T13:26:31.003Z,7.00
2018-08-04T13:28:58.557Z,7.77
2018-08-04T13:31:26.084Z,8.10
2018-08-04T13:33:53.641Z,6.73
2018-08-04T13:36:21.199Z,7.97
2018-08-04T13:38:48.809Z,6.90
2018-08-04T13:41:16.465Z,7.77
2018-08-04T13:43:44.036Z,8.10
2018-08-04T13:46:11.675Z,7.77
2018-08-04T13:48:39.268Z,9.07
2018-08-04T13:51:07.037Z,7.27
2018-08-04T13:53:34.651Z,7.87
2018-08-04T13:56:02.310Z,7.07
2018-08-04T13:58:29.937Z,8.07
2018-08-04T14:00:57.486Z,8.10
2018-08-04T14:03:25.059Z,8.33
2018-08-04T14:05:52.815Z,7.40
2018-08-04T14:08:20.417Z,8.20
2018-08-04T14:10:48.037Z,9.20
2018-08-04T14:13:15.704Z,8.53
2018-08-04T14:15:43.331Z,8.53
2018-08-04T14:18:10.955Z,8.07
2018-08-04T14:20:38.517Z,8.83
2018-08-04T14:23:06.097Z,8.10
2018-08-04T14:25:33.693Z,7.63
2018-08-04T14:28:01.270Z,7.83
2018-08-04T14:30:28.829Z,7.77
2018-08-04T14:32:56.376Z,8.70
2018-08-04T14:35:23.938Z,8.80
2018-08-04T14:37:51.584Z,8.37
2018-08-04T14:40:19.099Z,9.30
2018-08-04T14:42:46.790Z,7.63
2018-08-04T14:45:14.333Z,8.70
2018-08-04T14:47:42.429Z,8.40
2018-08-04T14:50:10.004Z,8.60
2018-08-04T14:52:37.594Z,8.60
2018-08-04T14:55:05.660Z,9.37
2018-08-04T14:57:33.220Z,8.60
2018-08-04T15:00:00.758Z,11.30
2018-08-04T15:02:28.298Z,9.20
2018-08-04T15:04:55.905Z,10.77
2018-08-04T15:07:23.398Z,10.17
2018-08-04T15:09:51.447Z,9.03
2018-08-04T15:12:18.972Z,9.60
2018-08-04T15:14:46.564Z,9.50
2018-08-04T15:17:14.145Z,10.07
2018-08-04T15:19:41.750Z,9.47
2018-08-04T15:22:09.284Z,9.83
2018-08-04T15:24:36.853Z,9.80
2018-08-04T15:27:04.399Z,9.13
2018-08-04T15:29:31.997Z,8.97
2018-08-04T15:31:59.590Z,10.07
2018-08-04T15:34:27.185Z,10.60
2018-08-04T15:36:54.767Z,10.10
2018-08-04T15:39:22.351Z,10.50
2018-08-04T15:41:49.887Z,9.30
2018-08-04T15:44:17.524Z,9.80
2018-08-04T15:46:45.105Z,9.17
2018-08-04T15:49:12.646Z,7.30
2018-08-04T15:51:40.261Z,8.93
2018-08-04T15:54:07.880Z,8.70
2018-08-04T15:56:35.430Z,8.73
2018-08-04T15:59:03.100Z,8.30
2018-08-04T16:01:30.690Z,10.37
2018-08-04T16:03:58.246Z,9.70
2018-08-04T16:06:25.804Z,11.07
2018-08-04T16:08:53.358Z,9.47
2018-08-04T16:11:20.915Z,10.23
2018-08-04T16:13:48.540Z,9.67
2018-08-04T16:16:16.142Z,10.00
2018-08-04T16:18:43.762Z,9.50
2018-08-04T16:21:11.440Z,8.47
2018-08-04T16:23:39.118Z,9.90
2018-08-04T16:26:06.721Z,11.40
2018-08-04T16:28:34.303Z,9.33
2018-08-04T16:31:01.843Z,10.90
2018-08-04T16:33:29.401Z,9.63
2018-08-04T16:35:56.976Z,13.90
2018-08-04T16:38:24.615Z,11.23
2018-08-04T16:40:52.126Z,11.67
2018-08-04T16:43:19.784Z,12.10
2018-08-04T16:45:47.455Z,10.50
2018-08-04T16:48:15.059Z,10.57
2018-08-04T16:50:42.637Z,11.90
2018-08-04T16:53:10.183Z,11.30
2018-08-04T16:55:37.725Z,11.10
2018-08-04T16:58:05.331Z,10.37
2018-08-04T17:00:32.992Z,19.87
2018-08-04T17:03:00.740Z,11.60
2018-08-04T17:05:28.318Z,10.50
2018-08-04T17:07:55.924Z,9.53
2018-08-04T17:10:23.613Z,10.70
2018-08-04T17:12:51.238Z,12.23
2018-08-04T17:15:19.001Z,13.10
2018-08-04T17:17:46.687Z,15.83
2018-08-04T17:20:14.289Z,17.27
2018-08-04T17:22:41.815Z,15.17
2018-08-04T17:25:09.326Z,14.33
2018-08-04T17:27:37.047Z,15.37
2018-08-04T17:30:04.801Z,15.57
2018-08-04T17:32:32.691Z,15.23
2018-08-04T17:35:00.355Z,13.20
2018-08-04T17:37:27.887Z,13.40
2018-08-04T17:39:55.565Z,12.00
2018-08-04T17:42:23.218Z,11.67
2018-08-04T17:44:50.819Z,11.63
2018-08-04T17:47:18.387Z,12.20
2018-08-04T17:49:46.017Z,11.60
2018-08-04T17:52:13.593Z,11.80
2018-08-04T17:54:41.161Z,12.03
2018-08-04T17:57:08.991Z,13.13
2018-08-04T17:59:36.509Z,10.83
2018-08-04T18:02:04.071Z,11.53
2018-08-04T18:04:31.669Z,11.50
2018-08-04T18:06:59.260Z,12.30
2018-08-04T18:09:26.943Z,11.40
2018-08-04T18:11:54.486Z,13.33
2018-08-04T18:14:22.052Z,12.30
2018-08-04T18:16:49.626Z,12.10
2018-08-04T18:19:17.347Z,13.50
2018-08-04T18:21:44.931Z,15.93
2018-08-04T18:24:12.523Z,19.57
2018-08-04T18:26:40.154Z,17.80
2018-08-04T18:29:07.846Z,23.80
2018-08-04T18:31:35.447Z,17.73
2018-08-04T18:34:03.012Z,18.27
2018-08-04T18:36:30.544Z,17.30
2018-08-04T18:38:58.438Z,16.10
2018-08-04T18:41:26.057Z,10.47
2018-08-04T18:43:53.662Z,16.30
2018-08-04T18:46:21.294Z,13.20
2018-08-04T18:48:48.860Z,19.70
2018-08-04T18:51:16.573Z,57.30
2018-08-04T18:53:44.233Z,54.17
2018-08-04T18:56:12.094Z,33.50
2018-08-04T18:58:39.791Z,30.27
2018-08-04T19:01:07.746Z,20.60
2018-08-04T19:03:35.372Z,21.80
2018-08-04T19:06:03.079Z,17.10
2018-08-04T19:08:30.785Z,16.20
2018-08-04T19:10:58.374Z,16.80
2018-08-04T19:13:25.964Z,17.80
2018-08-04T19:15:53.682Z,16.77
2018-08-04T19:18:21.292Z,17.20
2018-08-04T19:20:48.990Z,16.17
2018-08-04T19:23:16.610Z,17.33
2018-08-04T19:25:44.330Z,17.77
2018-08-04T19:28:12.047Z,17.53
2018-08-04T19:30:39.677Z,15.67
2018-08-04T19:33:07.363Z,15.43
2018-08-04T19:35:35.079Z,16.00
2018-08-04T19:38:02.712Z,16.53
2018-08-04T19:40:30.305Z,15.73
2018-08-04T19:42:57.937Z,14.40
2018-08-04T19:45:25.623Z,15.83
2018-08-04T19:47:53.287Z,16.47
2018-08-04T19:50:20.941Z,17.23
2018-08-04T19:52:48.578Z,17.10
2018-08-04T19:55:16.252Z,16.80
2018-08-04T19:57:43.846Z,17.40
2018-08-04T20:00:11.476Z,17.00
2018-08-04T20:02:39.172Z,23.03
2018-08-04T20:05:06.850Z,25.30
2018-08-04T20:07:35.139Z,17.27
2018-08-04T20:10:02.895Z,16.87
2018-08-04T20:12:30.588Z,18.23
2018-08-04T20:14:58.267Z,16.80
2018-08-04T20:17:26.023Z,18.33
2018-08-04T20:19:53.831Z,17.97
2018-08-04T20:22:21.568Z,17.27
2018-08-04T20:24:49.258Z,19.90
2018-08-04T20:27:17.103Z,20.50
2018-08-04T20:29:44.821Z,18.70
2018-08-04T20:32:12.575Z,20.10
2018-08-04T20:34:40.255Z,18.90
2018-08-04T20:37:07.914Z,19.73
2018-08-04T20:39:35.677Z,20.80
2018-08-04T20:42:03.303Z,22.37
2018-08-04T20:44:30.933Z,20.70
2018-08-04T20:46:58.624Z,20.40
2018-08-04T20:49:26.297Z,21.43
2018-08-04T20:51:54.040Z,21.63
2018-08-04T20:54:21.696Z,20.40
2018-08-04T20:56:49.336Z,20.57
2018-08-04T20:59:16.941Z,20.23
2018-08-04T21:01:58.076Z,21.77
2018-08-04T21:04:26.316Z,21.33
2018-08-04T21:06:54.138Z,21.97
2018-08-04T21:09:21.831Z,21.00
2018-08-04T21:11:50.993Z,20.57
2018-08-04T21:14:19.910Z,21.07
2018-08-04T21:16:48.577Z,22.10
2018-08-04T21:19:16.623Z,23.43
2018-08-04T21:21:44.293Z,21.70
2018-08-04T21:24:11.878Z,19.80
2018-08-04T21:26:39.663Z,22.53
2018-08-04T21:29:07.241Z,21.80
2018-08-04T21:31:34.880Z,21.40
2018-08-04T21:34:02.573Z,18.47
2018-08-04T21:36:30.182Z,21.70
2018-08-04T21:38:57.954Z,21.40
2018-08-04T21:41:25.796Z,21.43
2018-08-04T21:43:53.458Z,22.30
2018-08-04T21:46:21.087Z,23.27
2018-08-04T21:48:48.727Z,21.60
2018-08-04T21:51:16.349Z,22.20
2018-08-04T21:53:43.974Z,22.30
2018-08-04T21:56:11.749Z,22.37
2018-08-04T21:58:39.565Z,21.33
2018-08-04T22:01:11.343Z,22.63
2018-08-04T22:03:39.434Z,21.33
2018-08-04T22:06:07.082Z,23.10
2018-08-04T22:08:52.379Z,23.00
2018-08-04T22:11:19.955Z,21.80
2018-08-04T22:13:47.580Z,20.73
2018-08-04T22:16:15.182Z,21.43
2018-08-04T22:18:42.884Z,19.83
2018-08-04T22:21:10.489Z,17.97
2018-08-04T22:23:38.178Z,20.40
2018-08-04T22:26:05.783Z,19.53
2018-08-04T22:28:33.397Z,19.40
2018-08-04T22:31:00.953Z,19.90
2018-08-04T22:33:28.597Z,18.90
2018-08-04T22:35:56.218Z,20.13
2018-08-04T22:38:23.859Z,20.40
2018-08-04T22:40:51.389Z,19.93
2018-08-04T22:43:19.035Z,21.70
2018-08-04T22:46:10.605Z,21.23
2018-08-04T22:48:38.314Z,20.47
2018-08-04T22:51:05.949Z,20.30
2018-08-04T22:53:33.793Z,21.87
2018-08-04T22:56:01.429Z,22.83
2018-08-04T22:58:29.088Z,20.80
2018-08-04T23:00:56.808Z,22.27
2018-08-04T23:03:24.425Z,22.83
2018-08-04T23:05:52.073Z,20.70
2018-08-04T23:08:19.674Z,19.97
2018-08-04T23:10:47.287Z,21.53
2018-08-04T23:13:15.402Z,22.23
2018-08-04T23:15:43.258Z,22.90
2018-08-04T23:18:11.038Z,22.20
2018-08-04T23:20:38.774Z,21.93
2018-08-04T23:23:07.825Z,20.93
2018-08-04T23:25:35.393Z,23.30
2018-08-04T23:28:02.987Z,21.83
2018-08-04T23:30:30.566Z,24.37
2018-08-04T23:32:58.152Z,22.70
2018-08-04T23:35:26.411Z,23.23
2018-08-04T23:37:53.960Z,21.23
2018-08-04T23:40:21.825Z,21.63
2018-08-04T23:42:49.437Z,22.30
2018-08-04T23:45:17.042Z,23.70
2018-08-04T23:47:44.817Z,22.60
2018-08-04T23:50:12.508Z,21.23
2018-08-04T23:52:40.772Z,22.73
2018-08-04T23:55:08.418Z,22.37
2018-08-04T23:57:36.022Z,20.70
